createdAt,value
2022-11-12T00:01:40.386Z,10.25
2022-11-12T00:04:26.395Z,10.21
2022-11-12T00:07:15.498Z,10.23
2022-11-12T00:10:01.894Z,10.21
2022-11-12T00:12:52.187Z,10.22
2022-11-12T00:15:38.367Z,10.25
2022-11-12T00:18:24.156Z,10.27
2022-11-12T00:21:09.933Z,10.27
2022-11-12T00:23:55.616Z,10.26
2022-11-12T00:26:41.958Z,10.22
2022-11-12T00:29:27.581Z,10.18
2022-11-12T00:32:13.152Z,10.21
2022-11-12T00:35:02.462Z,10.20
2022-11-12T00:37:53.869Z,10.24
2022-11-12T00:40:41.816Z,10.27
2022-11-12T00:43:30.766Z,10.27
2022-11-12T00:46:16.716Z,10.27
2022-11-12T00:49:08.529Z,10.27
2022-11-12T00:51:54.947Z,10.24
2022-11-12T00:54:41.888Z,10.22
2022-11-12T00:57:28.049Z,10.23
2022-11-12T01:00:19.405Z,10.22
2022-11-12T01:03:05.247Z,10.22
2022-11-12T01:05:51.370Z,10.21
2022-11-12T01:08:39.545Z,10.16
2022-11-12T01:11:28.926Z,10.13
2022-11-12T01:14:14.961Z,10.14
2022-11-12T01:17:01.777Z,10.13
2022-11-12T01:19:55.557Z,10.08
2022-11-12T01:22:41.290Z,10.10
2022-11-12T01:25:30.344Z,10.15
2022-11-12T01:28:16.474Z,10.28
2022-11-12T01:31:16.735Z,10.35
2022-11-12T01:34:08.620Z,10.25
2022-11-12T01:36:55.611Z,10.20
2022-11-12T01:39:42.961Z,10.15
2022-11-12T01:42:35.063Z,10.11
2022-11-12T01:45:21.980Z,10.09
2022-11-12T01:48:24.060Z,10.21
2022-11-12T01:54:51.996Z,10.21
2022-11-12T01:57:42.956Z,10.13
2022-11-12T02:21:02.975Z,9.94
2022-11-12T02:28:00.065Z,10.03
2022-11-12T02:34:40.795Z,10.01
2022-11-12T02:37:26.690Z,10.01
2022-11-12T02:40:14.845Z,10.00
2022-11-12T02:43:02.522Z,9.95
2022-11-12T02:45:49.381Z,9.96
2022-11-12T02:48:36.464Z,9.98
2022-11-12T02:51:22.595Z,10.08
2022-11-12T02:57:39.638Z,10.05
2022-11-12T03:00:25.552Z,10.04
2022-11-12T03:09:51.248Z,10.17
2022-11-12T03:12:37.074Z,10.17
2022-11-12T03:15:24.695Z,10.14
2022-11-12T03:18:16.852Z,10.18
2022-11-12T03:21:04.584Z,10.20
2022-11-12T03:23:52.336Z,10.08
2022-11-12T03:26:39.913Z,9.99
2022-11-12T03:29:26.582Z,9.97
2022-11-12T03:32:13.537Z,10.11
2022-11-12T03:34:59.359Z,10.18
2022-11-12T03:40:15.979Z,10.02
2022-11-12T03:43:02.475Z,10.14
2022-11-12T03:45:48.346Z,10.06
2022-11-12T03:49:21.977Z,10.02
2022-11-12T03:52:55.975Z,9.97
2022-11-12T04:19:46.965Z,10.28
2022-11-12T04:22:32.742Z,10.33
2022-11-12T04:56:49.190Z,10.28
2022-11-12T05:03:11.153Z,10.09
2022-11-12T05:09:44.817Z,10.02
2022-11-12T05:44:19.248Z,9.81
2022-11-12T05:47:07.082Z,9.72
2022-11-12T06:00:43.652Z,9.82
2022-11-12T06:03:29.773Z,9.83
2022-11-12T06:06:15.673Z,9.82
2022-11-12T06:09:01.385Z,9.80
2022-11-12T06:11:49.940Z,9.78
2022-11-12T06:14:35.726Z,9.75
2022-11-12T06:17:23.344Z,9.76
2022-11-12T06:20:11.115Z,9.77
2022-11-12T06:22:57.075Z,9.74
2022-11-12T06:25:43.387Z,9.73
2022-11-12T06:28:30.256Z,9.80
2022-11-12T06:31:16.367Z,9.75
2022-11-12T06:34:02.831Z,9.67
2022-11-12T06:36:49.216Z,9.70
2022-11-12T06:39:35.073Z,9.75
2022-11-12T06:42:21.227Z,9.69
2022-11-12T06:45:08.080Z,9.65
2022-11-12T06:47:58.416Z,9.63
2022-11-12T06:50:46.460Z,9.63
2022-11-12T06:53:32.060Z,9.62
2022-11-12T06:56:18.470Z,9.62
2022-11-12T06:59:04.756Z,9.62
2022-11-12T07:01:52.236Z,9.60
2022-11-12T07:04:38.398Z,9.62
2022-11-12T07:07:24.520Z,9.63
2022-11-12T07:10:11.097Z,9.63
2022-11-12T07:23:28.006Z,9.76
2022-11-12T07:26:18.674Z,9.79
2022-11-12T07:29:10.296Z,9.78
2022-11-12T07:31:59.688Z,9.77
2022-11-12T07:34:47.252Z,9.79
2022-11-12T07:37:36.146Z,9.87
2022-11-12T07:53:59.964Z,9.86
2022-11-12T07:56:46.936Z,9.88
2022-11-12T09:12:23.409Z,10.18
2022-11-12T09:35:59.511Z,10.32
2022-11-12T09:38:47.162Z,10.31
2022-11-12T09:41:37.771Z,10.32
2022-11-12T09:44:24.968Z,10.37
2022-11-12T09:47:26.629Z,10.44
2022-11-12T09:50:25.858Z,10.52
2022-11-12T09:53:18.820Z,10.56
2022-11-12T09:56:12.710Z,10.56
2022-11-12T09:58:58.893Z,10.60
2022-11-12T10:02:02.769Z,10.63
2022-11-12T10:04:54.779Z,10.68
2022-11-12T10:07:52.152Z,10.72
2022-11-12T10:10:42.090Z,10.73
2022-11-12T10:13:38.580Z,10.74
2022-11-12T10:16:42.550Z,10.76
2022-11-12T10:19:56.326Z,10.77
2022-11-12T10:22:57.303Z,10.82
2022-11-12T10:25:46.090Z,10.84
2022-11-12T10:28:39.985Z,10.87
2022-11-12T10:31:25.880Z,10.88
2022-11-12T10:34:18.799Z,10.91
2022-11-12T10:37:12.679Z,11.00
2022-11-12T10:39:58.676Z,11.03
2022-11-12T10:43:04.700Z,11.05
2022-11-12T10:45:52.098Z,11.10
2022-11-12T10:48:41.318Z,11.09
2022-11-12T10:51:35.635Z,11.12
2022-11-12T10:54:28.152Z,11.14
2022-11-12T10:57:26.256Z,11.16
2022-11-12T11:00:21.315Z,11.24
2022-11-12T11:03:19.241Z,11.24
2022-11-12T11:06:23.190Z,11.24
2022-11-12T11:09:17.442Z,11.28
2022-11-12T11:12:23.171Z,11.31
2022-11-12T11:15:13.571Z,11.32
2022-11-12T11:18:00.180Z,11.28
2022-11-12T11:21:03.030Z,11.31
2022-11-12T11:23:57.863Z,11.37
2022-11-12T11:27:13.009Z,11.39
2022-11-12T11:30:14.520Z,11.38
2022-11-12T11:33:25.450Z,11.37
2022-11-12T11:36:23.538Z,11.42
2022-11-12T11:39:39.862Z,11.48
2022-11-12T11:42:35.402Z,11.54
2022-11-12T11:46:01.156Z,11.57
2022-11-12T11:49:17.211Z,11.61
2022-11-12T11:52:20.561Z,11.63
2022-11-12T11:55:31.217Z,11.67
2022-11-12T11:59:04.042Z,11.68
2022-11-12T12:02:03.435Z,11.66
2022-11-12T12:04:55.851Z,11.70
2022-11-12T12:08:13.902Z,11.75
2022-11-12T12:11:09.052Z,11.74
2022-11-12T12:14:13.622Z,11.69
2022-11-12T12:17:07.743Z,11.69
2022-11-12T12:20:03.393Z,11.67
2022-11-12T12:22:51.125Z,11.68
2022-11-12T12:25:41.216Z,11.69
2022-11-12T12:28:37.651Z,11.70
2022-11-12T12:31:31.127Z,11.69
2022-11-12T12:34:28.811Z,11.67
2022-11-12T12:37:27.097Z,11.66
2022-11-12T12:40:27.014Z,11.64
2022-11-12T12:43:19.399Z,11.66
2022-11-12T12:46:06.663Z,11.64
2022-11-12T12:48:53.965Z,11.63
2022-11-12T12:51:42.294Z,11.66
2022-11-12T12:54:49.676Z,11.69
2022-11-12T12:57:36.356Z,11.67
2022-11-12T13:00:32.583Z,11.63
2022-11-12T13:03:46.314Z,11.65
2022-11-12T13:06:39.663Z,11.68
2022-11-12T13:09:27.414Z,11.71
2022-11-12T13:12:17.111Z,11.71
2022-11-12T13:15:15.700Z,11.72
2022-11-12T13:18:01.816Z,11.71
2022-11-12T13:21:11.661Z,11.71
2022-11-12T13:24:06.987Z,11.72
2022-11-12T13:26:56.087Z,11.70
2022-11-12T13:29:44.073Z,11.72
2022-11-12T13:32:32.192Z,11.68
2022-11-12T13:35:34.448Z,11.67
2022-11-12T13:38:22.774Z,11.64
2022-11-12T13:41:19.431Z,11.63
2022-11-12T13:44:09.668Z,11.61
2022-11-12T13:46:56.965Z,11.57
2022-11-12T13:49:46.768Z,11.57
2022-11-12T13:52:34.407Z,11.58
2022-11-12T13:55:29.707Z,11.60
2022-11-12T13:58:35.835Z,11.59
2022-11-12T14:01:24.823Z,11.57
2022-11-12T14:04:14.263Z,11.55
2022-11-12T14:07:17.732Z,11.51
2022-11-12T14:11:04.593Z,11.51
2022-11-12T14:15:07.279Z,11.49
2022-11-12T14:18:24.050Z,11.40
2022-11-12T14:21:23.117Z,11.34
2022-11-12T14:24:13.190Z,11.32
2022-11-12T14:27:02.128Z,11.26
2022-11-12T14:29:50.346Z,11.24
2022-11-12T14:32:40.850Z,11.24
2022-11-12T14:35:35.809Z,11.16
2022-11-12T14:38:28.153Z,11.11
2022-11-12T14:41:33.382Z,11.11
2022-11-12T14:44:23.857Z,11.09
2022-11-12T14:47:10.936Z,11.09
2022-11-12T14:49:59.137Z,11.09
2022-11-12T14:52:49.551Z,11.08
2022-11-12T14:55:40.393Z,11.07
2022-11-12T14:58:27.674Z,11.06
2022-11-12T15:04:52.262Z,10.99
2022-11-12T15:07:54.657Z,10.95
2022-11-12T15:10:44.890Z,10.90
2022-11-12T15:13:40.183Z,10.92
2022-11-12T15:16:30.321Z,10.93
2022-11-12T15:19:25.663Z,10.92
2022-11-12T15:22:21.876Z,10.91
2022-11-12T15:25:20.831Z,10.93
2022-11-12T15:28:24.430Z,10.97
2022-11-12T15:31:23.466Z,10.97
2022-11-12T15:34:39.006Z,10.98
2022-11-12T15:37:27.416Z,10.99
2022-11-12T15:40:20.605Z,10.99
2022-11-12T15:43:14.879Z,10.99
2022-11-12T15:46:02.246Z,11.00
2022-11-12T15:48:54.525Z,11.00
2022-11-12T15:51:42.124Z,11.06
2022-11-12T15:54:32.268Z,11.07
2022-11-12T15:57:25.001Z,11.04
2022-11-12T16:00:18.382Z,11.02
2022-11-12T16:03:13.164Z,10.99
2022-11-12T16:06:05.508Z,11.00
2022-11-12T16:08:58.139Z,11.02
2022-11-12T16:11:43.940Z,11.06
2022-11-12T16:19:26.734Z,10.90
2022-11-12T16:22:14.630Z,10.85
2022-11-12T16:25:03.218Z,10.81
2022-11-12T16:27:55.567Z,10.80
2022-11-12T16:30:43.256Z,10.82
2022-11-12T16:33:29.680Z,10.85
2022-11-12T16:36:19.479Z,10.87
2022-11-12T16:39:06.412Z,10.86
2022-11-12T16:41:52.336Z,10.86
2022-11-12T16:44:38.324Z,10.87
2022-11-12T16:47:26.122Z,10.86
2022-11-12T16:50:14.516Z,10.87
2022-11-12T16:53:01.387Z,10.88
2022-11-12T16:55:47.201Z,10.87
2022-11-12T16:58:34.967Z,10.88
2022-11-12T17:01:28.787Z,10.87
2022-11-12T17:04:15.191Z,10.90
2022-11-12T17:07:01.099Z,10.92
2022-11-12T17:09:47.227Z,10.93
2022-11-12T17:12:34.928Z,10.94
2022-11-12T17:19:52.412Z,11.05
2022-11-12T17:22:39.797Z,11.06
2022-11-12T17:25:27.392Z,11.07
2022-11-12T17:28:13.451Z,11.08
2022-11-12T17:31:15.179Z,11.09
2022-11-12T17:34:05.178Z,11.10
2022-11-12T17:36:52.279Z,11.09
2022-11-12T17:39:41.037Z,11.07
2022-11-12T17:42:28.748Z,11.01
2022-11-12T17:45:16.766Z,11.00
2022-11-12T17:48:05.612Z,11.01
2022-11-12T17:51:04.229Z,11.04
2022-11-12T17:53:52.917Z,10.96
2022-11-12T17:56:40.277Z,10.94
2022-11-12T17:59:28.669Z,10.95
2022-11-12T18:02:15.054Z,10.97
2022-11-12T18:05:02.011Z,10.96
2022-11-12T18:07:48.944Z,10.99
2022-11-12T18:10:35.723Z,11.06
2022-11-12T18:13:26.580Z,11.10
2022-11-12T18:16:25.692Z,11.15
2022-11-12T18:19:13.386Z,11.14
2022-11-12T18:22:02.478Z,11.15
2022-11-12T18:24:49.882Z,11.17
2022-11-12T18:27:39.973Z,11.20
2022-11-12T18:30:32.542Z,11.20
2022-11-12T18:33:20.108Z,11.14
2022-11-12T18:36:10.222Z,11.10
2022-11-12T18:38:57.311Z,11.10
2022-11-12T18:41:44.138Z,11.05
2022-11-12T18:44:33.041Z,11.00
2022-11-12T18:47:21.641Z,10.98
2022-11-12T18:50:09.294Z,10.97
2022-11-12T18:52:56.564Z,10.98
2022-11-12T18:55:43.196Z,10.99
2022-11-12T18:58:34.894Z,10.95
2022-11-12T19:01:25.351Z,10.95
2022-11-12T19:04:11.769Z,10.96
2022-11-12T19:07:00.349Z,10.98
2022-11-12T19:09:48.751Z,10.98
2022-11-12T19:12:37.081Z,10.97
2022-11-12T19:15:26.997Z,10.93
2022-11-12T19:18:14.754Z,10.91
2022-11-12T19:21:08.472Z,10.89
2022-11-12T19:23:57.049Z,10.90
2022-11-12T19:26:44.001Z,10.88
2022-11-12T19:29:32.712Z,10.86
2022-11-12T19:32:21.306Z,10.86
2022-11-12T19:35:10.270Z,10.84
2022-11-12T19:38:02.032Z,10.84
2022-11-12T19:40:50.121Z,10.82
2022-11-12T19:43:39.022Z,10.78
2022-11-12T19:46:26.297Z,10.77
2022-11-12T19:49:13.010Z,10.74
2022-11-12T19:52:00.312Z,10.73
2022-11-12T19:54:47.191Z,10.71
2022-11-12T19:57:33.880Z,10.68
2022-11-12T20:00:20.989Z,10.66
2022-11-12T20:03:16.301Z,10.64
2022-11-12T20:06:14.782Z,10.62
2022-11-12T20:09:05.961Z,10.63
2022-11-12T20:11:52.089Z,10.64
2022-11-12T20:15:09.079Z,10.65
2022-11-12T20:17:57.091Z,10.67
2022-11-12T20:20:56.934Z,10.65
2022-11-12T20:23:45.141Z,10.64
2022-11-12T20:26:32.141Z,10.63
2022-11-12T20:29:21.473Z,10.60
2022-11-12T20:32:09.251Z,10.57
2022-11-12T20:34:56.941Z,10.57
2022-11-12T20:37:43.637Z,10.57
2022-11-12T20:40:32.530Z,10.59
2022-11-12T20:43:26.585Z,10.59
2022-11-12T20:46:16.199Z,10.60
2022-11-12T20:49:06.301Z,10.62
2022-11-12T20:51:53.892Z,10.65
2022-11-12T20:54:43.149Z,10.68
2022-11-12T20:57:30.978Z,10.70
2022-11-12T21:00:23.961Z,10.71
2022-11-12T21:03:10.584Z,10.74
2022-11-12T21:06:04.998Z,10.73
2022-11-12T21:08:53.221Z,10.72
2022-11-12T21:11:40.874Z,10.70
2022-11-12T21:14:28.038Z,10.69
2022-11-12T21:17:14.717Z,10.63
2022-11-12T21:20:01.132Z,10.59
2022-11-12T21:22:47.935Z,10.58
2022-11-12T21:25:39.411Z,10.57
2022-11-12T21:28:27.827Z,10.54
2022-11-12T21:31:28.756Z,10.55
2022-11-12T21:34:14.795Z,10.58
2022-11-12T21:37:02.486Z,10.61
2022-11-12T21:39:49.816Z,10.62
2022-11-12T21:42:36.877Z,10.64
2022-11-12T21:45:23.023Z,10.66
2022-11-12T21:48:09.153Z,10.69
2022-11-12T21:50:54.914Z,10.75
2022-11-12T21:53:45.390Z,10.77
2022-11-12T21:56:33.723Z,10.80
2022-11-12T21:59:20.651Z,10.78
2022-11-12T22:02:08.859Z,10.78
2022-11-12T22:04:54.876Z,10.73
2022-11-12T22:07:43.639Z,10.70
2022-11-12T22:10:30.800Z,10.71
2022-11-12T22:13:32.028Z,10.69
2022-11-12T22:16:21.675Z,10.66
2022-11-12T22:19:07.885Z,10.62
2022-11-12T22:21:56.268Z,10.62
2022-11-12T22:24:43.029Z,10.64
2022-11-12T22:27:31.077Z,10.67
2022-11-12T22:30:17.394Z,10.68
2022-11-12T22:33:04.390Z,10.69
2022-11-12T22:35:50.428Z,10.70
2022-11-12T22:38:38.376Z,10.74
2022-11-12T22:41:27.438Z,10.75
2022-11-12T22:44:13.429Z,10.72
2022-11-12T22:47:01.659Z,10.69
2022-11-12T22:49:49.542Z,10.66
2022-11-12T22:52:35.880Z,10.65
2022-11-12T22:55:23.200Z,10.65
2022-11-12T22:58:10.784Z,10.63
2022-11-12T23:00:56.962Z,10.63
2022-11-12T23:03:43.495Z,10.69
2022-11-12T23:06:31.897Z,10.73
2022-11-12T23:09:18.146Z,10.78
2022-11-12T23:12:04.097Z,10.81
2022-11-12T23:14:52.425Z,10.84
2022-11-12T23:17:39.287Z,10.84
2022-11-12T23:20:25.428Z,10.84
2022-11-12T23:23:14.045Z,10.80
2022-11-12T23:26:12.023Z,10.80
2022-11-12T23:29:01.442Z,10.82
2022-11-12T23:31:47.186Z,10.76
2022-11-12T23:34:33.937Z,10.69
2022-11-12T23:37:19.647Z,10.72
2022-11-12T23:40:08.158Z,10.70
2022-11-12T23:42:54.324Z,10.67
2022-11-12T23:45:40.566Z,10.68
2022-11-12T23:48:27.931Z,10.69
2022-11-12T23:51:17.778Z,10.72
2022-11-12T23:54:04.829Z,10.75
2022-11-12T23:56:50.616Z,10.79
2022-11-12T23:59:38.297Z,10.79
